Time;durP1;ratioP1;P1;durP2;ratioP2;P2;SDS_P1;SDS_P2;PMS_P1;PMS_P2;Temp;Humidity;BMP_temperature;BMP_pressure;BME280_temperature;BME280_humidity;BME280_pressure;Samples;Min_cycle;Max_cycle;Signal;HPM_P1;HPM_P2
2021/12/19 00:00:24;;;;;;;7.00;4.40;;;;;;;0.14;91.31;99050.23;104973;1328;23457;-65
2021/12/19 00:08:52;;;;;;;7.80;5.50;;;;;;;0.16;91.14;99038.71;101172;1331;138914;-61
2021/12/19 00:11:26;;;;;;;9.50;5.50;;;;;;;0.15;91.18;99027.38;101204;1328;24117;-61
2021/12/19 00:14:14;;;;;;;8.00;5.70;;;;;;;0.18;91.30;99022.39;101163;1331;25354;-60
2021/12/19 00:16:43;;;;;;;9.50;5.30;;;;;;;0.18;91.18;99021.91;104992;1335;137981;-61
2021/12/19 00:19:10;;;;;;;8.70;4.60;;;;;;;0.19;91.26;99015.77;105139;1329;23376;-60
2021/12/19 00:21:40;;;;;;;8.60;5.40;;;;;;;0.20;91.32;99004.14;104977;1328;137835;-60
2021/12/19 00:24:08;;;;;;;11.00;5.90;;;;;;;0.21;91.26;99012.67;105151;1328;22483;-60
2021/12/19 00:26:37;;;;;;;9.50;5.70;;;;;;;0.23;91.20;99007.78;105094;1328;137762;-61
2021/12/19 00:29:05;;;;;;;8.10;5.40;;;;;;;0.25;91.41;99001.65;105207;1334;22399;-61
2021/12/19 00:31:33;;;;;;;8.40;5.70;;;;;;;0.25;91.32;98993.66;105093;1328;23114;-61
2021/12/19 00:34:01;;;;;;;10.80;6.10;;;;;;;0.27;91.33;98986.23;105031;1334;138415;-61
2021/12/19 00:36:29;;;;;;;10.20;6.30;;;;;;;0.29;91.23;98982.14;105093;1329;23592;-67
2021/12/19 00:38:57;;;;;;;10.80;6.40;;;;;;;0.30;91.27;98975.26;105025;1328;137936;-67
2021/12/19 00:41:25;;;;;;;10.20;6.40;;;;;;;0.32;91.28;98969.70;105110;1332;22484;-68
2021/12/19 00:43:55;;;;;;;9.50;6.00;;;;;;;0.32;91.09;98958.03;105161;1329;23302;-66
2021/12/19 00:46:26;;;;;;;9.10;6.00;;;;;;;0.33;91.05;98951.19;105019;1328;137318;-67
2021/12/19 00:48:54;;;;;;;9.60;5.80;;;;;;;0.33;91.13;98941.70;105153;1328;23243;-67
2021/12/19 00:51:23;;;;;;;10.40;6.20;;;;;;;0.33;91.13;98934.58;104997;1334;138370;-66
2021/12/19 00:53:53;;;;;;;10.20;6.10;;;;;;;0.33;90.83;98938.95;101720;1333;22666;-66
2021/12/19 00:56:21;;;;;;;11.00;6.70;;;;;;;0.34;91.23;98935.36;105097;1329;23234;-67
2021/12/19 00:58:49;;;;;;;12.90;7.40;;;;;;;0.33;91.07;98931.89;105041;1332;137446;-67
2021/12/19 01:01:18;;;;;;;13.70;7.50;;;;;;;0.33;91.25;98918.50;105129;1332;22564;-66
2021/12/19 01:03:47;;;;;;;11.20;7.20;;;;;;;0.33;91.20;98913.39;104979;1332;139095;-67
2021/12/19 01:06:18;;;;;;;9.30;6.20;;;;;;;0.33;91.06;98905.93;103422;1334;24288;-60
2021/12/19 01:08:47;;;;;;;10.20;6.20;;;;;;;0.32;91.29;98904.77;104979;1328;138365;-61
2021/12/19 01:11:15;;;;;;;11.70;7.00;;;;;;;0.33;91.10;98904.70;105402;1330;23339;-61
2021/12/19 01:13:44;;;;;;;9.90;6.40;;;;;;;0.33;91.22;98906.46;105389;1325;22892;-61
2021/12/19 01:16:12;;;;;;;7.60;6.00;;;;;;;0.35;91.10;98900.37;105318;1325;137340;-61
2021/12/19 01:18:40;;;;;;;9.60;7.50;;;;;;;0.35;91.44;98897.85;105418;1326;23220;-61
2021/12/19 01:21:08;;;;;;;8.90;6.30;;;;;;;0.36;91.14;98890.39;105267;1325;137730;-61
2021/12/19 01:23:37;;;;;;;7.20;5.60;;;;;;;0.36;91.15;98887.92;105159;1328;22404;-61
2021/12/19 01:26:05;;;;;;;10.20;6.00;;;;;;;0.37;91.24;98876.88;105554;1328;22531;-60
2021/12/19 01:28:32;;;;;;;10.50;6.60;;;;;;;0.37;91.16;98862.02;105372;1324;138812;-60
2021/12/19 01:31:01;;;;;;;11.30;7.90;;;;;;;0.38;91.22;98856.10;105508;1328;22589;-61
2021/12/19 01:33:29;;;;;;;8.80;6.10;;;;;;;0.36;91.40;98850.23;105423;1325;137632;-61
2021/12/19 01:35:57;;;;;;;10.20;7.30;;;;;;;0.36;91.09;98847.60;105529;1325;22323;-61
2021/12/19 01:38:27;;;;;;;10.40;7.20;;;;;;;0.37;91.05;98839.28;105566;1325;22455;-61
2021/12/19 01:40:55;;;;;;;8.00;6.50;;;;;;;0.36;90.91;98832.73;103082;1318;137428;-65
2021/12/19 01:43:26;;;;;;;7.40;5.70;;;;;;;0.35;90.90;98824.98;106141;1319;23186;-66
2021/12/19 01:45:59;;;;;;;10.10;6.40;;;;;;;0.35;91.14;98810.88;106092;1319;137412;-66
2021/12/19 01:48:28;;;;;;;9.30;5.90;;;;;;;0.35;91.22;98801.43;106174;1323;22411;-66
2021/12/19 01:50:56;;;;;;;11.40;7.00;;;;;;;0.35;91.38;98797.36;105965;1318;137903;-66
2021/12/19 01:53:24;;;;;;;12.70;7.70;;;;;;;0.34;91.15;98791.75;106150;1319;22475;-66
2021/12/19 01:55:52;;;;;;;14.90;8.00;;;;;;;0.33;91.29;98785.61;106186;1319;23476;-66
2021/12/19 01:58:20;;;;;;;10.60;7.10;;;;;;;0.32;91.23;98779.35;106121;1319;137671;-66
2021/12/19 02:00:53;;;;;;;7.30;5.90;;;;;;;0.33;91.22;98774.65;106162;1324;23309;-66
2021/12/19 02:03:21;;;;;;;8.80;5.90;;;;;;;0.34;91.20;98758.08;106066;1318;137511;-66
2021/12/19 02:05:49;;;;;;;9.80;6.80;;;;;;;0.35;91.04;98752.80;105118;1325;23075;-66
2021/12/19 02:08:19;;;;;;;9.50;6.60;;;;;;;0.35;91.36;98760.09;106208;1319;23005;-66
2021/12/19 02:10:48;;;;;;;10.90;6.70;;;;;;;0.36;91.25;98751.69;105915;1318;138395;-66
2021/12/19 02:13:38;;;;;;;8.70;6.00;;;;;;;0.36;91.36;98737.17;106215;1316;22609;-67
2021/12/19 02:16:06;;;;;;;10.50;6.60;;;;;;;0.35;91.38;98733.55;104532;1318;138666;-66
2021/12/19 02:18:33;;;;;;;8.20;6.00;;;;;;;0.34;91.16;98731.08;102397;1320;23953;-65
2021/12/19 02:21:01;;;;;;;8.00;6.00;;;;;;;0.35;91.36;98731.95;102060;1319;138452;-65
2021/12/19 02:23:29;;;;;;;7.60;6.00;;;;;;;0.35;91.14;98724.11;102139;1319;22598;-66
2021/12/19 02:25:57;;;;;;;9.70;7.50;;;;;;;0.34;91.29;98726.55;102156;1319;22684;-65
2021/12/19 02:28:25;;;;;;;9.30;7.00;;;;;;;0.34;91.26;98723.00;102165;1323;139112;-65
2021/12/19 02:30:53;;;;;;;8.40;6.50;;;;;;;0.33;91.16;98722.67;102246;1319;23993;-65
2021/12/19 02:33:24;;;;;;;10.20;6.50;;;;;;;0.32;91.46;98722.46;102108;1318;137349;-65
2021/12/19 02:36:03;;;;;;;10.00;6.70;;;;;;;0.31;91.27;98718.84;102183;1321;24195;-64
2021/12/19 02:49:34;;;;;;;9.40;6.00;;;;;;;0.32;91.40;98679.39;106217;1319;22499;-60
2021/12/19 02:52:10;;;;;;;9.70;6.30;;;;;;;0.33;91.50;98674.48;106096;1320;137489;-61
2021/12/19 02:54:37;;;;;;;9.10;6.50;;;;;;;0.34;91.52;98671.80;106087;1318;22517;-60
2021/12/19 02:57:05;;;;;;;9.50;6.70;;;;;;;0.35;91.46;98664.64;103871;1324;137935;-59
2021/12/19 02:59:33;;;;;;;11.10;6.90;;;;;;;0.35;91.58;98657.09;102231;1319;25522;-60
2021/12/19 03:02:02;;;;;;;16.10;7.90;;;;;;;0.37;91.48;98651.43;106131;1318;23359;-60
2021/12/19 03:04:30;;;;;;;13.50;8.60;;;;;;;0.38;91.47;98655.27;106113;1319;138871;-59
2021/12/19 03:06:59;;;;;;;14.80;7.70;;;;;;;0.39;91.54;98649.98;106197;1318;22510;-58
2021/12/19 03:20:00;;;;;;;8.10;5.90;;;;;;;0.39;91.77;98616.48;106320;1315;22519;-66
2021/12/19 03:22:28;;;;;;;8.70;6.30;;;;;;;0.39;91.74;98617.84;106265;1316;138606;-66
2021/12/19 03:24:56;;;;;;;7.40;5.60;;;;;;;0.39;91.66;98604.27;106376;1316;23251;-66
2021/12/19 03:27:24;;;;;;;7.90;5.80;;;;;;;0.40;91.73;98594.29;106227;1315;139933;-65
2021/12/19 03:29:51;;;;;;;7.50;5.30;;;;;;;0.39;91.71;98592.93;106243;1316;22485;-66
2021/12/19 03:32:19;;;;;;;8.10;6.20;;;;;;;0.39;91.60;98587.25;106287;1316;22416;-66
2021/12/19 03:34:47;;;;;;;10.60;6.50;;;;;;;0.39;91.88;98586.34;106239;1315;138285;-65
2021/12/19 03:37:15;;;;;;;8.30;5.70;;;;;;;0.40;91.84;98578.05;106324;1316;22622;-65
2021/12/19 03:42:45;;;;;;;9.10;6.60;;;;;;;0.41;91.71;98566.68;105855;1322;22519;-65
2021/12/19 03:45:15;;;;;;;12.70;9.10;;;;;;;0.41;91.93;98564.98;105740;1324;138665;-64
2021/12/19 03:47:43;;;;;;;10.00;7.20;;;;;;;0.43;92.15;98555.45;105792;1325;22283;-66
2021/12/19 03:50:14;;;;;;;10.50;6.70;;;;;;;0.44;91.86;98538.11;105784;1321;23109;-66
2021/12/19 03:52:42;;;;;;;11.60;7.30;;;;;;;0.45;91.95;98532.78;105670;1326;138051;-66
2021/12/19 03:55:10;;;;;;;9.80;6.70;;;;;;;0.46;91.99;98528.52;105835;1321;22299;-65
2021/12/19 03:57:38;;;;;;;12.80;6.80;;;;;;;0.47;92.17;98525.39;105748;1321;137797;-65
2021/12/19 04:00:08;;;;;;;9.80;6.40;;;;;;;0.47;91.95;98519.24;105791;1322;22334;-66
2021/12/19 04:02:38;;;;;;;9.70;6.90;;;;;;;0.47;92.15;98512.45;105850;1322;23541;-65
2021/12/19 04:05:06;;;;;;;10.90;6.80;;;;;;;0.49;91.99;98511.36;105715;1322;137807;-65
2021/12/19 04:07:34;;;;;;;11.40;6.50;;;;;;;0.50;92.25;98504.39;105798;1322;22573;-66
2021/12/19 04:10:04;;;;;;;10.10;6.00;;;;;;;0.51;92.25;98496.59;105698;1326;138614;-65
2021/12/19 04:12:32;;;;;;;11.00;6.50;;;;;;;0.52;92.37;98495.35;105680;1321;22704;-66
2021/12/19 04:15:00;;;;;;;12.20;6.70;;;;;;;0.53;92.31;98487.67;105738;1322;139426;-65
2021/12/19 04:17:28;;;;;;;9.50;6.70;;;;;;;0.53;91.92;98486.92;104820;1328;22488;-65
2021/12/19 04:19:56;;;;;;;9.90;6.60;;;;;;;0.55;92.16;98475.98;106298;1316;22945;-65
2021/12/19 04:22:28;;;;;;;9.70;6.10;;;;;;;0.56;92.04;98476.89;106021;1316;138345;-66
2021/12/19 04:24:56;;;;;;;8.90;6.40;;;;;;;0.57;92.28;98469.84;106369;1315;23253;-66
2021/12/19 04:27:24;;;;;;;10.20;6.30;;;;;;;0.57;91.96;98462.52;106250;1315;137987;-65
2021/12/19 04:29:53;;;;;;;11.70;7.20;;;;;;;0.58;92.11;98459.94;106363;1315;22474;-66
2021/12/19 04:32:27;;;;;;;10.20;6.50;;;;;;;0.59;92.26;98461.84;106279;1315;23601;-66
2021/12/19 04:34:55;;;;;;;7.70;5.70;;;;;;;0.58;92.35;98461.39;106270;1316;137711;-65
2021/12/19 04:38:17;;;;;;;10.20;7.30;;;;;;;0.58;92.26;98457.52;106340;1316;22591;-66
2021/12/19 04:40:43;;;;;;;12.00;7.80;;;;;;;0.60;92.51;98459.19;106233;1315;137725;-66
2021/12/19 05:15:33;;;;;;;10.90;6.40;;;;;;;0.63;92.95;98350.72;106262;1315;140262;-64
2021/12/19 05:18:06;;;;;;;9.00;6.10;;;;;;;0.65;93.08;98342.45;106357;1316;22492;-66
2021/12/19 05:20:35;;;;;;;9.90;6.60;;;;;;;0.65;93.07;98333.05;106342;1316;22748;-65
2021/12/19 05:23:20;;;;;;;9.80;6.60;;;;;;;0.66;93.21;98327.15;106141;1315;138174;-66
2021/12/19 05:25:48;;;;;;;9.20;6.10;;;;;;;0.67;93.09;98312.42;106370;1316;22488;-67
2021/12/19 05:28:16;;;;;;;7.90;5.60;;;;;;;0.66;93.13;98303.73;106277;1315;138107;-66
2021/12/19 05:30:44;;;;;;;9.80;6.70;;;;;;;0.66;93.00;98298.86;105833;1316;22424;-66
2021/12/19 05:33:12;;;;;;;8.90;6.00;;;;;;;0.66;93.19;98297.95;106157;1315;139705;-65
2021/12/19 05:46:38;;;;;;;12.40;7.40;;;;;;;0.72;93.44;98284.65;106038;1316;137662;-65
2021/12/19 05:49:08;;;;;;;10.00;6.40;;;;;;;0.73;93.66;98273.98;105282;1325;22399;-65
2021/12/19 05:51:38;;;;;;;9.10;6.90;;;;;;;0.74;93.64;98271.45;106231;1315;138234;-65
2021/12/19 05:54:06;;;;;;;18.90;7.30;;;;;;;0.74;93.49;98256.08;106338;1315;23131;-65
2021/12/19 05:56:41;;;;;;;9.30;7.00;;;;;;;0.78;93.75;98246.10;103819;1315;25438;-64
2021/12/19 05:59:15;;;;;;;12.90;6.70;;;;;;;0.77;93.81;98230.48;102167;1322;137672;-66
2021/12/19 06:01:45;;;;;;;10.50;7.50;;;;;;;0.78;93.84;98236.02;106189;1316;23336;-64
2021/12/19 06:04:13;;;;;;;9.20;6.50;;;;;;;0.78;93.71;98223.16;106267;1316;138048;-64
2021/12/19 06:06:42;;;;;;;10.30;7.10;;;;;;;0.78;93.80;98220.59;106354;1315;22458;-65
2021/12/19 06:09:10;;;;;;;15.60;10.60;;;;;;;0.79;93.73;98210.84;106226;1315;138784;-64
2021/12/19 06:11:38;;;;;;;12.90;9.30;;;;;;;0.80;93.95;98207.39;106329;1316;23117;-64
2021/12/19 06:14:08;;;;;;;19.80;12.10;;;;;;;0.80;93.93;98206.38;106149;1316;22533;-64
2021/12/19 06:16:36;;;;;;;17.90;11.50;;;;;;;0.81;93.97;98195.85;106235;1315;137996;-64
2021/12/19 06:19:04;;;;;;;17.50;11.10;;;;;;;0.82;93.87;98193.08;106362;1321;22497;-63
2021/12/19 06:21:33;;;;;;;14.60;8.40;;;;;;;0.84;93.92;98195.29;106253;1316;139967;-63
2021/12/19 06:24:01;;;;;;;22.00;11.90;;;;;;;0.85;94.12;98195.03;106348;1316;22442;-64
2021/12/19 06:26:32;;;;;;;22.40;12.50;;;;;;;0.86;93.92;98201.23;106307;1315;22395;-63
2021/12/19 06:28:59;;;;;;;44.10;17.90;;;;;;;0.88;94.15;98205.77;106263;1319;137949;-65
2021/12/19 06:31:27;;;;;;;25.20;13.00;;;;;;;0.88;94.23;98202.56;105709;1322;22404;-65
2021/12/19 06:33:55;;;;;;;33.50;16.70;;;;;;;0.90;94.21;98200.95;106284;1315;138050;-64
2021/12/19 06:36:24;;;;;;;18.90;11.00;;;;;;;0.92;94.34;98196.71;106340;1316;22396;-64
2021/12/19 06:38:52;;;;;;;16.90;10.30;;;;;;;0.93;94.27;98183.71;106374;1316;22503;-64
2021/12/19 06:41:21;;;;;;;16.10;9.00;;;;;;;0.95;94.34;98184.14;106262;1316;139159;-64
2021/12/19 06:43:48;;;;;;;12.80;7.90;;;;;;;0.96;94.43;98176.98;106317;1315;22265;-65
2021/12/19 06:46:16;;;;;;;9.50;7.10;;;;;;;0.98;94.62;98165.30;106196;1315;137768;-65
2021/12/19 06:48:44;;;;;;;10.70;7.20;;;;;;;0.98;94.30;98159.52;106347;1316;22672;-64
2021/12/19 06:51:12;;;;;;;10.40;6.90;;;;;;;0.98;94.38;98158.55;106280;1317;138043;-64
2021/12/19 06:53:40;;;;;;;12.60;7.60;;;;;;;1.00;94.58;98137.98;106333;1316;22435;-64
2021/12/19 06:56:08;;;;;;;10.90;7.70;;;;;;;1.01;94.22;98137.15;106367;1316;23152;-64
2021/12/19 06:58:36;;;;;;;9.00;6.80;;;;;;;1.02;94.46;98129.39;106248;1315;137852;-64
2021/12/19 07:01:04;;;;;;;10.70;7.40;;;;;;;1.02;94.47;98133.58;106352;1316;22296;-64
2021/12/19 07:03:32;;;;;;;10.40;6.50;;;;;;;1.03;94.43;98150.39;106212;1315;138560;-65
2021/12/19 07:06:01;;;;;;;12.90;8.60;;;;;;;1.04;94.65;98160.27;106361;1315;22466;-59
2021/12/19 07:08:29;;;;;;;16.60;9.40;;;;;;;1.05;94.70;98173.45;106282;1318;22308;-58
2021/12/19 07:10:57;;;;;;;15.10;10.00;;;;;;;1.06;94.42;98177.93;106202;1315;138852;-59
2021/12/19 07:13:25;;;;;;;11.90;8.70;;;;;;;1.06;94.59;98175.84;106297;1315;23211;-59
2021/12/19 07:15:54;;;;;;;12.80;9.30;;;;;;;1.06;94.69;98165.11;106234;1315;139424;-59
2021/12/19 07:18:22;;;;;;;14.10;8.70;;;;;;;1.09;94.64;98169.98;106325;1316;23046;-61
2021/12/19 07:20:50;;;;;;;13.10;8.90;;;;;;;1.08;94.72;98171.77;106339;1315;22589;-59
2021/12/19 07:23:20;;;;;;;17.60;10.70;;;;;;;1.09;94.81;98159.38;106195;1315;137884;-59
2021/12/19 07:25:48;;;;;;;16.50;10.00;;;;;;;1.09;94.85;98150.22;106339;1320;22510;-59
2021/12/19 07:28:17;;;;;;;16.30;10.10;;;;;;;1.10;94.93;98138.98;105660;1315;139061;-59
2021/12/19 07:30:48;;;;;;;13.00;8.90;;;;;;;1.11;94.76;98130.52;106339;1315;22293;-60
2021/12/19 07:33:18;;;;;;;11.80;8.10;;;;;;;1.11;94.86;98123.49;106188;1316;138942;-60
2021/12/19 07:35:48;;;;;;;16.20;9.40;;;;;;;1.11;94.85;98111.00;105333;1315;25237;-67
2021/12/19 07:38:28;;;;;;;15.60;9.70;;;;;;;1.11;95.00;98090.30;102247;1315;25564;-65
2021/12/19 07:40:58;;;;;;;12.60;8.60;;;;;;;1.12;94.98;98061.67;102229;1313;138888;-67
2021/12/19 07:43:26;;;;;;;14.00;9.90;;;;;;;1.13;95.11;98062.69;102302;1316;24388;-66
2021/12/19 07:45:55;;;;;;;15.30;9.20;;;;;;;1.12;95.05;98067.11;102197;1315;137953;-64
2021/12/19 07:48:23;;;;;;;14.20;9.40;;;;;;;1.12;95.04;98069.84;102316;1315;22649;-66
2021/12/19 07:50:51;;;;;;;13.70;9.70;;;;;;;1.12;95.19;98076.64;102320;1315;22726;-67
2021/12/19 07:53:19;;;;;;;17.00;10.40;;;;;;;1.12;95.26;98067.58;102205;1316;137849;-67
2021/12/19 07:55:47;;;;;;;15.60;10.40;;;;;;;1.14;95.27;98068.20;102296;1316;23318;-65
2021/12/19 07:58:15;;;;;;;15.40;9.60;;;;;;;1.14;95.26;98078.19;102178;1316;138181;-67
2021/12/19 08:00:44;;;;;;;18.30;11.20;;;;;;;1.14;95.40;98069.40;102349;1316;22778;-65
2021/12/19 08:03:12;;;;;;;16.30;11.00;;;;;;;1.12;95.37;98060.77;102199;1315;138191;-68
2021/12/19 08:05:42;;;;;;;17.80;11.00;;;;;;;1.15;95.38;98067.70;102238;1317;301303;-68
2021/12/19 08:08:15;;;;;;;24.30;13.50;;;;;;;1.16;95.51;98074.08;102249;1315;25390;-67
2021/12/19 08:13:11;;;;;;;17.50;11.20;;;;;;;1.18;95.60;98059.98;106262;1313;22631;-67
2021/12/19 08:15:41;;;;;;;19.90;12.50;;;;;;;1.19;95.83;98057.60;106062;1316;139444;-66
2021/12/19 08:18:09;;;;;;;19.30;12.50;;;;;;;1.21;95.64;98043.09;106262;1320;23278;-66
2021/12/19 08:20:37;;;;;;;22.10;11.60;;;;;;;1.23;95.95;98028.33;106336;1315;22450;-67
2021/12/19 08:23:05;;;;;;;20.60;11.40;;;;;;;1.23;95.85;98026.79;106187;1316;139167;-66
2021/12/19 08:25:33;;;;;;;18.50;10.80;;;;;;;1.25;95.77;98032.21;106319;1315;22506;-66
2021/12/19 08:28:01;;;;;;;16.80;10.70;;;;;;;1.28;95.80;98022.71;106182;1316;137786;-66
2021/12/19 08:30:43;;;;;;;21.70;12.60;;;;;;;1.30;95.77;98025.71;106380;1316;22486;-66
2021/12/19 08:33:11;;;;;;;21.10;12.40;;;;;;;1.32;95.91;98032.73;106211;1316;140553;-66
2021/12/19 08:35:39;;;;;;;20.10;12.20;;;;;;;1.35;95.83;98031.65;106326;1315;22530;-66
2021/12/19 08:38:07;;;;;;;20.10;11.90;;;;;;;1.37;96.03;98022.05;106339;1316;23193;-66
2021/12/19 08:40:37;;;;;;;20.70;12.40;;;;;;;1.40;95.85;98008.81;106231;1316;139622;-66
2021/12/19 08:43:06;;;;;;;20.70;11.80;;;;;;;1.44;95.82;98010.27;106337;1315;22492;-65
2021/12/19 08:45:34;;;;;;;20.50;12.10;;;;;;;1.46;95.99;98005.54;106197;1316;138321;-66
2021/12/19 08:48:03;;;;;;;18.20;11.50;;;;;;;1.47;95.81;97997.71;106353;1316;22503;-67
2021/12/19 08:50:32;;;;;;;21.10;12.00;;;;;;;1.48;96.02;97991.14;106348;1313;23216;-66
2021/12/19 08:53:00;;;;;;;20.10;11.80;;;;;;;1.49;95.90;97988.64;106257;1315;139111;-66
2021/12/19 08:55:33;;;;;;;17.50;11.40;;;;;;;1.50;95.81;97982.18;106315;1315;22494;-66
2021/12/19 08:58:01;;;;;;;21.40;11.80;;;;;;;1.52;95.88;97976.04;106270;1316;138794;-67
2021/12/19 09:00:30;;;;;;;19.10;11.60;;;;;;;1.53;95.75;97977.09;106346;1316;23149;-66
2021/12/19 09:02:59;;;;;;;19.00;11.40;;;;;;;1.54;95.92;97977.98;106338;1315;22550;-67
2021/12/19 09:05:28;;;;;;;21.60;11.60;;;;;;;1.55;95.71;97978.20;106190;1315;138591;-67
2021/12/19 09:07:59;;;;;;;22.50;10.90;;;;;;;1.55;95.75;97973.20;106240;1315;22496;-67
2021/12/19 09:10:29;;;;;;;18.40;10.90;;;;;;;1.54;95.59;97963.69;105786;1315;138491;-66
2021/12/19 09:12:57;;;;;;;17.80;9.40;;;;;;;1.53;95.39;97961.02;105999;1316;22468;-68
2021/12/19 09:15:25;;;;;;;15.70;9.30;;;;;;;1.50;95.47;97961.41;105061;1316;137786;-66
2021/12/19 09:17:53;;;;;;;13.40;8.20;;;;;;;1.48;95.25;97957.16;102496;1315;23408;-67
2021/12/19 09:20:21;;;;;;;26.10;14.80;;;;;;;1.45;95.08;97952.97;102444;1315;25398;-66
2021/12/19 09:22:49;;;;;;;26.70;14.90;;;;;;;1.40;95.04;97948.11;102141;1316;138003;-66
2021/12/19 09:25:19;;;;;;;30.70;18.20;;;;;;;1.37;94.91;97942.08;106290;1320;22936;-66
2021/12/19 09:27:48;;;;;;;21.50;12.70;;;;;;;1.32;94.70;97933.66;106188;1316;140023;-68
2021/12/19 09:30:16;;;;;;;15.40;9.50;;;;;;;1.28;94.60;97929.56;106362;1316;22395;-67
2021/12/19 09:32:51;;;;;;;12.90;7.80;;;;;;;1.24;94.56;97927.33;106353;1315;22534;-67
2021/12/19 09:35:19;;;;;;;13.70;7.60;;;;;;;1.20;94.37;97924.45;106184;1315;138692;-68
2021/12/19 09:37:47;;;;;;;15.30;8.70;;;;;;;1.17;94.21;97913.91;106308;1315;22498;-67
2021/12/19 09:40:22;;;;;;;15.70;9.10;;;;;;;1.12;94.12;97907.63;105660;1315;137997;-66
2021/12/19 09:42:51;;;;;;;14.80;7.60;;;;;;;1.10;94.11;97901.40;105328;1320;23312;-67
2021/12/19 09:45:20;;;;;;;11.70;6.30;;;;;;;1.07;94.14;97898.02;106147;1316;139554;-66
2021/12/19 09:47:48;;;;;;;12.80;7.60;;;;;;;1.06;93.88;97892.05;106221;1319;22467;-67
2021/12/19 09:50:16;;;;;;;13.60;8.00;;;;;;;1.04;93.76;97881.16;106230;1316;23238;-66
2021/12/19 09:52:45;;;;;;;15.00;7.80;;;;;;;1.03;93.91;97874.29;106211;1315;138006;-66
2021/12/19 09:55:18;;;;;;;17.40;9.30;;;;;;;1.03;93.79;97874.61;106324;1316;22484;-66
2021/12/19 09:57:46;;;;;;;15.00;8.20;;;;;;;1.04;94.00;97871.92;106164;1319;137916;-66
2021/12/19 10:00:16;;;;;;;16.60;8.50;;;;;;;1.04;93.93;97869.31;106279;1316;22584;-66
2021/12/19 10:02:45;;;;;;;15.20;7.90;;;;;;;1.06;93.94;97858.46;106332;1315;22641;-66
2021/12/19 10:05:14;;;;;;;11.90;7.90;;;;;;;1.08;94.09;97853.52;105597;1316;138481;-66
2021/12/19 10:08:03;;;;;;;16.30;7.30;;;;;;;1.11;93.86;97846.98;106338;1316;23602;-66
2021/12/19 10:13:36;;;;;;;12.80;7.90;;;;;;;1.18;94.02;97833.85;106348;1319;22410;-66
2021/12/19 10:16:28;;;;;;;14.20;7.90;;;;;;;1.22;94.22;97825.50;104546;1315;137668;-65
2021/12/19 10:18:59;;;;;;;15.10;8.60;;;;;;;1.26;94.27;97822.66;106302;1315;24771;-66
2021/12/19 10:21:30;;;;;;;15.20;8.60;;;;;;;1.30;94.49;97817.84;106225;1315;139345;-65
2021/12/19 10:24:00;;;;;;;14.90;8.90;;;;;;;1.34;94.60;97805.79;106288;1315;23300;-66
2021/12/19 10:26:40;;;;;;;15.30;9.00;;;;;;;1.40;94.74;97799.09;106186;1315;22478;-66
2021/12/19 10:29:08;;;;;;;14.50;8.20;;;;;;;1.47;94.82;97796.61;106205;1315;139900;-66
2021/12/19 10:31:39;;;;;;;11.80;7.30;;;;;;;1.53;95.02;97787.98;106244;1315;22662;-66
2021/12/19 10:34:20;;;;;;;12.80;7.70;;;;;;;1.60;95.09;97784.38;106114;1316;139024;-66
2021/12/19 10:36:48;;;;;;;12.20;7.10;;;;;;;1.67;95.18;97772.86;106295;1315;23533;-66
2021/12/19 10:39:24;;;;;;;10.50;6.60;;;;;;;1.72;95.01;97763.56;106021;1315;138038;-66
2021/12/19 10:41:59;;;;;;;13.80;6.50;;;;;;;1.78;95.26;97756.50;106332;1315;22400;-66
2021/12/19 10:47:26;;;;;;;10.30;6.30;;;;;;;1.90;95.22;97739.92;102703;1316;138609;-66
2021/12/19 10:49:54;;;;;;;14.30;6.80;;;;;;;1.95;95.44;97735.17;102132;1316;22689;-66
2021/12/19 10:52:30;;;;;;;10.60;6.00;;;;;;;2.00;95.34;97725.90;101996;1316;138012;-65
2021/12/19 10:55:00;;;;;;;13.10;6.70;;;;;;;2.04;95.63;97718.75;106188;1320;22377;-67
2021/12/19 10:57:36;;;;;;;9.10;5.30;;;;;;;2.08;95.47;97718.11;106193;1316;138613;-66
2021/12/19 11:00:12;;;;;;;10.30;6.00;;;;;;;2.12;95.61;97710.27;106275;1315;22545;-66
2021/12/19 11:02:42;;;;;;;10.00;6.00;;;;;;;2.17;95.61;97707.91;106312;1315;22373;-67
2021/12/19 11:05:33;;;;;;;11.40;6.10;;;;;;;2.21;95.66;97702.58;106208;1314;138276;-67
2021/12/19 11:08:08;;;;;;;7.40;5.10;;;;;;;2.26;95.67;97696.00;106305;1315;22445;-67
2021/12/19 11:10:37;;;;;;;9.70;6.00;;;;;;;2.30;95.65;97694.60;106159;1316;138111;-66
2021/12/19 11:13:12;;;;;;;10.50;5.20;;;;;;;2.36;95.57;97690.80;106217;1315;23133;-67
2021/12/19 11:15:41;;;;;;;9.70;6.10;;;;;;;2.39;95.55;97688.64;106204;1315;138049;-68
2021/12/19 11:18:09;;;;;;;14.40;8.90;;;;;;;2.42;95.51;97684.28;106288;1315;22494;-67
2021/12/19 11:20:37;;;;;;;12.90;6.20;;;;;;;2.46;95.48;97680.70;106213;1315;23205;-67
2021/12/19 11:23:05;;;;;;;13.30;6.80;;;;;;;2.48;95.33;97681.91;106230;1315;138467;-67
2021/12/19 11:25:35;;;;;;;11.30;6.40;;;;;;;2.51;95.28;97677.75;106298;1317;22652;-67
2021/12/19 11:28:16;;;;;;;10.90;5.50;;;;;;;2.54;95.22;97671.60;106211;1315;138014;-67
2021/12/19 11:30:44;;;;;;;12.50;5.90;;;;;;;2.56;95.29;97660.34;105089;1322;22506;-67
2021/12/19 11:33:39;;;;;;;9.70;6.10;;;;;;;2.58;95.13;97656.66;106067;1316;138181;-65
2021/12/19 11:36:08;;;;;;;24.70;14.30;;;;;;;2.62;95.12;97660.17;106325;1319;22436;-67
2021/12/19 11:38:36;;;;;;;45.20;23.10;;;;;;;2.64;95.00;97659.95;106318;1317;22536;-67
2021/12/19 11:41:13;;;;;;;77.40;34.70;;;;;;;2.66;94.88;97652.70;106085;1316;138054;-67
2021/12/19 11:43:43;;;;;;;104.10;46.90;;;;;;;2.68;94.83;97654.67;106306;1316;23213;-66
2021/12/19 11:46:18;;;;;;;79.00;34.70;;;;;;;2.71;94.74;97657.14;106146;1315;138133;-66
2021/12/19 11:48:46;;;;;;;54.00;22.60;;;;;;;2.73;94.65;97652.58;106294;1315;22418;-67
2021/12/19 11:51:21;;;;;;;40.90;18.50;;;;;;;2.75;94.47;97648.27;106051;1316;139140;-65
2021/12/19 11:53:49;;;;;;;36.30;14.60;;;;;;;2.75;94.59;97643.05;106280;1315;23802;-66
2021/12/19 11:56:18;;;;;;;41.30;18.30;;;;;;;2.77;94.58;97647.55;106292;1315;22620;-61
2021/12/19 11:58:48;;;;;;;52.00;22.90;;;;;;;2.78;94.34;97646.16;106178;1315;137938;-61
2021/12/19 12:01:19;;;;;;;54.60;21.80;;;;;;;2.79;94.26;97638.59;106276;1315;22639;-62
2021/12/19 12:03:50;;;;;;;60.80;25.90;;;;;;;2.80;94.24;97633.65;106209;1316;139224;-62
2021/12/19 12:06:22;;;;;;;58.80;26.20;;;;;;;2.81;94.20;97627.20;106047;1316;22483;-61
2021/12/19 12:09:59;;;;;;;59.70;23.70;;;;;;;2.84;94.03;97625.45;99223;1351;545197;-62
2021/12/19 12:12:35;;;;;;;58.30;22.20;;;;;;;2.83;93.94;97621.42;100887;1328;22597;-60
2021/12/19 12:15:05;;;;;;;42.90;16.00;;;;;;;2.86;93.80;97621.08;100848;1328;24637;-60
2021/12/19 12:17:40;;;;;;;29.30;12.30;;;;;;;2.86;93.72;97624.25;104827;1328;137850;-61
2021/12/19 15:34:57;;;;;;;9.90;4.50;;;;;;;2.45;94.55;97590.50;99082;1351;558913;-60
2021/12/19 15:37:25;;;;;;;5.70;3.80;;;;;;;2.54;94.03;97581.52;100873;1329;200667;-60
2021/12/19 15:39:53;;;;;;;11.00;5.90;;;;;;;2.56;93.93;97580.89;105327;1325;137729;-60
2021/12/19 15:42:21;;;;;;;7.40;5.20;;;;;;;2.56;93.93;97580.67;105416;1325;23330;-67
2021/12/19 15:44:49;;;;;;;14.40;6.40;;;;;;;2.57;93.74;97585.69;105352;1325;22480;-68
2021/12/19 15:47:18;;;;;;;9.80;5.10;;;;;;;2.58;93.82;97584.35;105247;1326;137529;-66
2021/12/19 15:49:46;;;;;;;7.50;4.70;;;;;;;2.60;93.82;97587.20;105357;1325;22333;-69
2021/12/19 15:52:18;;;;;;;7.10;4.10;;;;;;;2.61;93.66;97579.80;105373;1325;137667;-63
2021/12/19 15:54:46;;;;;;;11.00;5.80;;;;;;;2.62;93.51;97578.20;105312;1325;23090;-62
2021/12/19 15:57:14;;;;;;;8.30;5.20;;;;;;;2.63;93.46;97575.03;105231;1325;137648;-62
2021/12/19 15:59:44;;;;;;;8.80;4.20;;;;;;;2.63;93.31;97575.30;105334;1326;22423;-62
2021/12/19 16:02:15;;;;;;;10.50;6.00;;;;;;;2.63;93.26;97574.77;105470;1325;23271;-62
2021/12/19 16:04:46;;;;;;;10.10;7.10;;;;;;;2.64;93.22;97575.09;105235;1325;137813;-62
2021/12/19 16:07:14;;;;;;;14.20;7.80;;;;;;;2.64;93.22;97571.88;101919;1325;22631;-68
2021/12/19 16:09:43;;;;;;;10.40;5.40;;;;;;;2.65;93.12;97568.91;101533;1326;140355;-67
2021/12/19 16:12:11;;;;;;;25.90;11.50;;;;;;;2.64;93.01;97574.77;101201;1326;25534;-68